createdAt,value
2022-10-09T00:01:18.100Z,69.72
2022-10-09T00:03:46.879Z,68.76
2022-10-09T00:06:17.034Z,69.38
2022-10-09T00:08:43.528Z,69.90
2022-10-09T00:11:11.825Z,69.33
2022-10-09T00:13:38.749Z,69.36
2022-10-09T00:16:07.995Z,69.00
2022-10-09T00:18:34.942Z,68.63
2022-10-09T00:21:01.395Z,68.85
2022-10-09T00:23:29.220Z,68.79
2022-10-09T00:25:57.680Z,68.84
2022-10-09T00:28:25.847Z,70.26
2022-10-09T00:30:52.858Z,69.91
2022-10-09T00:33:19.736Z,68.87
2022-10-09T00:35:46.739Z,68.22
2022-10-09T00:38:13.725Z,68.10
2022-10-09T00:40:42.179Z,68.58
2022-10-09T00:43:14.601Z,68.78
2022-10-09T00:45:44.825Z,69.60
2022-10-09T00:48:12.202Z,69.03
2022-10-09T00:50:41.950Z,68.60
2022-10-09T00:53:11.686Z,69.11
2022-10-09T00:55:39.488Z,69.41
2022-10-09T00:58:08.136Z,70.09
2022-10-09T01:00:34.690Z,71.14
2022-10-09T01:03:01.588Z,69.17
2022-10-09T01:05:35.220Z,69.91
2022-10-09T01:08:10.161Z,70.31
2022-10-09T01:10:42.804Z,70.49
2022-10-09T01:13:19.562Z,71.34
2022-10-09T01:15:51.291Z,70.13
2022-10-09T01:18:23.977Z,69.95
2022-10-09T01:20:54.604Z,69.25
2022-10-09T01:23:41.509Z,70.29
2022-10-09T01:26:30.533Z,69.43
2022-10-09T01:29:04.635Z,70.50
2022-10-09T01:31:33.844Z,70.63
2022-10-09T01:34:01.541Z,69.95
2022-10-09T01:36:30.190Z,71.54
2022-10-09T01:38:59.608Z,71.09
2022-10-09T01:41:26.963Z,69.78
2022-10-09T01:43:53.352Z,71.22
2022-10-09T01:46:25.120Z,70.75
2022-10-09T01:48:57.590Z,69.93
2022-10-09T01:51:29.890Z,70.94
2022-10-09T01:53:59.702Z,72.15
2022-10-09T01:56:32.249Z,71.20
2022-10-09T01:59:04.994Z,70.71
2022-10-09T02:01:35.167Z,70.78
2022-10-09T02:04:07.309Z,70.61
2022-10-09T02:06:36.194Z,70.39
2022-10-09T02:09:07.484Z,71.38
2022-10-09T02:11:35.863Z,71.24
2022-10-09T02:14:02.625Z,72.29
2022-10-09T02:16:46.332Z,70.33
2022-10-09T02:19:18.704Z,69.97
2022-10-09T02:21:50.297Z,70.29
2022-10-09T02:24:19.952Z,71.49
2022-10-09T02:26:46.744Z,71.15
2022-10-09T02:29:14.722Z,70.94
2022-10-09T02:31:43.415Z,71.04
2022-10-09T02:34:11.451Z,69.55
2022-10-09T02:36:39.072Z,70.14
2022-10-09T02:39:06.850Z,70.40
2022-10-09T02:41:34.034Z,71.11
2022-10-09T02:44:00.997Z,73.19
2022-10-09T02:46:27.510Z,71.67
2022-10-09T02:48:55.303Z,71.59
2022-10-09T02:51:21.757Z,73.06
2022-10-09T02:53:48.206Z,71.21
2022-10-09T02:56:14.621Z,71.14
2022-10-09T02:58:41.167Z,72.92
2022-10-09T03:01:07.717Z,72.08
2022-10-09T03:03:34.216Z,71.89
2022-10-09T03:06:02.880Z,73.38
2022-10-09T03:08:29.499Z,73.57
2022-10-09T03:10:56.424Z,71.69
2022-10-09T03:13:23.075Z,73.08
2022-10-09T03:15:49.795Z,74.76
2022-10-09T03:18:16.264Z,74.26
2022-10-09T03:20:42.733Z,74.33
2022-10-09T03:23:11.823Z,72.74
2022-10-09T03:25:38.255Z,73.38
2022-10-09T03:28:04.730Z,72.74
2022-10-09T03:30:31.211Z,71.98
2022-10-09T03:32:57.651Z,72.51
2022-10-09T03:35:24.225Z,71.77
2022-10-09T03:37:50.649Z,71.45
2022-10-09T03:40:18.427Z,72.00
2022-10-09T03:42:44.856Z,71.48
2022-10-09T03:45:11.262Z,71.50
2022-10-09T03:47:37.716Z,71.10
2022-10-09T03:50:04.857Z,70.59
2022-10-09T03:52:31.237Z,69.88
2022-10-09T03:54:57.797Z,69.54
2022-10-09T03:57:25.544Z,69.81
2022-10-09T03:59:52.048Z,69.28
2022-10-09T04:02:18.500Z,70.68
2022-10-09T04:04:44.963Z,71.56
2022-10-09T04:07:11.697Z,71.62
2022-10-09T04:09:38.081Z,72.48
2022-10-09T04:12:04.681Z,72.25
2022-10-09T04:14:32.490Z,71.70
2022-10-09T04:16:59.060Z,72.31
2022-10-09T04:19:25.454Z,72.53
2022-10-09T04:21:51.857Z,72.53
2022-10-09T04:24:18.273Z,72.99
2022-10-09T04:26:44.661Z,73.42
2022-10-09T04:29:11.114Z,72.65
2022-10-09T04:31:39.121Z,73.24
2022-10-09T04:34:05.674Z,71.59
2022-10-09T04:36:32.094Z,70.39
2022-10-09T04:38:58.554Z,72.56
2022-10-09T04:41:24.970Z,71.02
2022-10-09T04:43:54.223Z,71.57
2022-10-09T04:46:20.617Z,70.78
2022-10-09T04:48:48.431Z,70.59
2022-10-09T04:51:15.935Z,70.58
2022-10-09T04:53:42.840Z,71.63
2022-10-09T04:56:11.104Z,72.00
2022-10-09T04:58:37.964Z,71.77
2022-10-09T05:01:06.103Z,72.23
2022-10-09T05:03:32.610Z,72.04
2022-10-09T05:06:01.732Z,71.63
2022-10-09T05:08:28.222Z,71.52
2022-10-09T05:10:59.763Z,72.64
2022-10-09T05:13:26.180Z,74.16
2022-10-09T05:15:52.608Z,71.81
2022-10-09T05:18:19.046Z,72.36
2022-10-09T05:20:45.446Z,73.50
2022-10-09T05:23:13.202Z,72.96
2022-10-09T05:25:39.594Z,73.48
2022-10-09T05:28:06.112Z,73.83
2022-10-09T05:30:32.524Z,74.16
2022-10-09T05:32:58.914Z,72.75
2022-10-09T05:35:25.398Z,71.48
2022-10-09T05:37:51.800Z,71.82
2022-10-09T05:40:19.512Z,73.74
2022-10-09T05:42:49.535Z,72.69
2022-10-09T05:45:16.114Z,71.56
2022-10-09T05:47:42.488Z,71.61
2022-10-09T05:50:09.333Z,72.62
2022-10-09T05:52:35.924Z,71.75
2022-10-09T05:55:02.316Z,73.97
2022-10-09T05:57:30.239Z,73.24
2022-10-09T05:59:56.604Z,73.97
2022-10-09T06:02:23.284Z,74.59
2022-10-09T06:04:49.774Z,73.48
2022-10-09T06:07:16.271Z,72.01
2022-10-09T06:09:42.698Z,73.52
2022-10-09T06:12:09.136Z,72.18
2022-10-09T06:14:36.913Z,72.82
2022-10-09T06:17:03.374Z,71.97
2022-10-09T06:19:29.841Z,72.16
2022-10-09T06:21:56.259Z,71.89
2022-10-09T06:24:28.688Z,72.86
2022-10-09T06:26:55.989Z,72.21
2022-10-09T06:29:22.648Z,71.81
2022-10-09T06:31:50.393Z,72.20
2022-10-09T06:34:16.951Z,71.85
2022-10-09T06:36:43.389Z,72.12
2022-10-09T06:39:10.297Z,71.99
2022-10-09T06:41:36.737Z,72.29
2022-10-09T06:44:04.956Z,71.46
2022-10-09T06:46:33.267Z,71.36
2022-10-09T06:49:01.606Z,72.67
2022-10-09T06:51:29.104Z,72.03
2022-10-09T06:53:57.238Z,72.39
2022-10-09T06:56:25.824Z,72.66
2022-10-09T06:58:52.382Z,72.33
2022-10-09T07:01:20.664Z,71.79
2022-10-09T07:03:52.285Z,71.55
2022-10-09T07:06:21.786Z,71.06
2022-10-09T07:08:50.173Z,71.95
2022-10-09T07:11:18.831Z,70.40
2022-10-09T07:13:45.227Z,70.78
2022-10-09T07:16:11.673Z,71.03
2022-10-09T07:18:38.919Z,69.56
2022-10-09T07:21:07.207Z,70.55
2022-10-09T07:23:36.085Z,70.14
2022-10-09T07:26:10.529Z,72.37
2022-10-09T07:28:37.062Z,70.27
2022-10-09T07:31:04.535Z,73.83
2022-10-09T07:33:31.469Z,72.81
2022-10-09T07:36:00.115Z,72.53
2022-10-09T07:38:27.340Z,72.02
2022-10-09T07:40:59.217Z,71.17
2022-10-09T07:43:25.609Z,72.07
2022-10-09T07:45:51.995Z,72.34
2022-10-09T07:48:18.583Z,72.37
2022-10-09T07:50:44.994Z,71.60
2022-10-09T07:53:11.444Z,72.17
2022-10-09T07:55:44.775Z,71.54
2022-10-09T07:58:12.621Z,72.22
2022-10-09T08:00:39.262Z,72.21
2022-10-09T08:03:05.863Z,72.71
2022-10-09T08:05:32.304Z,72.14
2022-10-09T08:07:58.828Z,71.42
2022-10-09T08:10:25.486Z,71.67
2022-10-09T08:12:52.171Z,71.05
2022-10-09T08:15:20.189Z,69.61
2022-10-09T08:17:46.604Z,70.45
2022-10-09T08:20:13.020Z,70.21
2022-10-09T08:22:39.463Z,70.14
2022-10-09T08:25:06.687Z,70.32
2022-10-09T08:27:33.064Z,70.82
2022-10-09T08:29:59.564Z,69.72
2022-10-09T08:32:27.370Z,70.06
2022-10-09T08:34:53.769Z,69.52
2022-10-09T08:37:20.229Z,69.66
2022-10-09T08:39:46.674Z,68.79
2022-10-09T08:42:26.142Z,69.06
2022-10-09T08:44:52.837Z,68.79
2022-10-09T08:47:24.153Z,68.04
2022-10-09T08:49:56.764Z,67.77
2022-10-09T08:52:37.911Z,67.70
2022-10-09T08:55:14.329Z,68.27
2022-10-09T08:57:40.967Z,67.73
2022-10-09T09:00:14.700Z,66.47
2022-10-09T09:02:49.386Z,67.58
2022-10-09T09:05:30.360Z,66.55
2022-10-09T09:08:05.771Z,66.20
2022-10-09T09:10:41.088Z,67.93
2022-10-09T09:13:22.290Z,67.07
2022-10-09T09:15:55.525Z,66.18
2022-10-09T09:18:38.578Z,65.96
2022-10-09T09:21:16.962Z,65.69
2022-10-09T09:23:46.724Z,65.92
2022-10-09T09:26:16.303Z,66.70
2022-10-09T09:28:44.099Z,66.78
2022-10-09T09:31:16.882Z,65.49
2022-10-09T09:33:49.992Z,65.85
2022-10-09T09:36:22.597Z,66.11
2022-10-09T09:39:35.072Z,64.99
2022-10-09T09:41:36.395Z,66.26
2022-10-09T09:44:03.687Z,66.36
2022-10-09T09:46:32.157Z,65.32
2022-10-09T09:48:58.798Z,65.09
2022-10-09T09:51:29.746Z,63.91
2022-10-09T09:53:59.398Z,64.69
2022-10-09T09:56:47.740Z,63.23
2022-10-09T09:59:30.836Z,64.59
2022-10-09T10:02:01.707Z,65.01
2022-10-09T10:04:28.262Z,65.25
2022-10-09T10:06:56.137Z,63.25
2022-10-09T10:09:22.634Z,64.71
2022-10-09T10:11:55.157Z,63.32
2022-10-09T10:14:21.821Z,64.95
2022-10-09T10:16:50.115Z,62.99
2022-10-09T10:19:21.480Z,63.20
2022-10-09T10:21:48.882Z,61.87
2022-10-09T10:24:23.532Z,64.03
2022-10-09T10:26:53.858Z,61.00
2022-10-09T10:29:23.392Z,61.46
2022-10-09T10:31:53.806Z,60.85
2022-10-09T10:34:26.118Z,60.13
2022-10-09T10:37:02.567Z,60.75
2022-10-09T10:39:36.856Z,59.14
2022-10-09T10:42:11.659Z,58.54
2022-10-09T10:44:47.218Z,58.26
2022-10-09T10:47:18.272Z,57.67
2022-10-09T10:49:44.796Z,58.00
2022-10-09T10:52:25.158Z,58.73
2022-10-09T10:54:59.758Z,58.01
2022-10-09T10:57:34.006Z,56.37
2022-10-09T11:00:05.153Z,60.00
2022-10-09T11:03:00.830Z,56.07
2022-10-09T11:05:36.300Z,57.05
2022-10-09T11:08:19.972Z,53.60
2022-10-09T11:10:56.559Z,55.60
2022-10-09T11:13:27.389Z,56.15
2022-10-09T11:16:01.149Z,58.72
2022-10-09T11:18:45.782Z,55.57
2022-10-09T11:21:24.796Z,55.82
2022-10-09T11:24:18.646Z,56.04
2022-10-09T11:26:57.563Z,56.25
2022-10-09T11:29:34.464Z,55.81
2022-10-09T11:32:06.001Z,54.15
2022-10-09T11:34:38.876Z,54.76
2022-10-09T11:37:12.601Z,53.73
2022-10-09T11:39:39.526Z,53.54
2022-10-09T11:42:12.523Z,52.82
2022-10-09T11:44:46.541Z,53.21
2022-10-09T11:47:20.458Z,51.98
2022-10-09T11:50:04.709Z,51.12
2022-10-09T11:52:42.007Z,51.34
2022-10-09T11:55:16.507Z,53.09
2022-10-09T11:57:44.304Z,52.12
2022-10-09T12:00:11.825Z,51.10
2022-10-09T12:02:40.127Z,51.76
2022-10-09T12:05:17.208Z,50.81
2022-10-09T12:07:43.923Z,52.02
2022-10-09T12:10:31.306Z,52.14
2022-10-09T12:13:02.266Z,50.07
2022-10-09T12:15:38.409Z,49.50
2022-10-09T12:18:16.648Z,51.14
2022-10-09T12:20:47.808Z,49.90
2022-10-09T12:23:28.029Z,49.67
2022-10-09T12:25:56.057Z,47.38
2022-10-09T12:28:30.367Z,46.93
2022-10-09T12:30:59.475Z,47.22
2022-10-09T12:33:30.032Z,49.12
2022-10-09T12:36:04.924Z,48.18
2022-10-09T12:38:32.020Z,47.94
2022-10-09T12:41:01.638Z,48.84
2022-10-09T12:43:30.565Z,49.33
2022-10-09T12:45:57.293Z,47.81
2022-10-09T12:48:26.072Z,48.06
2022-10-09T12:50:53.268Z,47.77
2022-10-09T12:53:22.367Z,48.84
2022-10-09T12:55:51.804Z,48.71
2022-10-09T12:58:20.780Z,47.66
2022-10-09T13:00:50.819Z,47.73
2022-10-09T13:03:25.719Z,48.03
2022-10-09T13:05:53.322Z,45.87
2022-10-09T13:08:25.615Z,47.84
2022-10-09T13:10:53.006Z,48.13
2022-10-09T13:13:23.020Z,48.25
2022-10-09T13:16:00.599Z,47.03
2022-10-09T13:18:27.689Z,48.74
2022-10-09T13:21:02.851Z,51.59
2022-10-09T13:23:31.480Z,48.88
2022-10-09T13:26:01.173Z,48.06
2022-10-09T13:28:30.104Z,47.43
2022-10-09T13:30:56.729Z,47.04
2022-10-09T13:33:24.510Z,46.79
2022-10-09T13:35:50.900Z,46.41
2022-10-09T13:38:18.330Z,47.21
2022-10-09T13:40:44.734Z,46.73
2022-10-09T13:43:18.084Z,46.80
2022-10-09T13:45:44.591Z,45.50
2022-10-09T13:48:11.032Z,46.23
2022-10-09T13:50:38.868Z,47.36
2022-10-09T13:53:05.385Z,48.81
2022-10-09T13:55:31.786Z,47.53
2022-10-09T13:57:58.204Z,47.85
2022-10-09T14:00:25.071Z,46.43
2022-10-09T14:02:51.476Z,45.69
2022-10-09T14:05:18.143Z,46.72
2022-10-09T14:07:45.885Z,47.51
2022-10-09T14:10:12.451Z,46.91
2022-10-09T14:12:39.381Z,45.54
2022-10-09T14:15:06.938Z,46.21
2022-10-09T14:17:33.515Z,45.30
2022-10-09T14:19:59.928Z,45.74
2022-10-09T14:22:26.346Z,47.08
2022-10-09T14:24:54.099Z,46.95
2022-10-09T14:27:20.481Z,46.51
2022-10-09T14:29:46.887Z,46.73
2022-10-09T14:32:13.300Z,47.52
2022-10-09T14:34:39.745Z,48.29
2022-10-09T14:37:18.548Z,48.15
2022-10-09T14:39:45.567Z,49.11
2022-10-09T14:42:13.310Z,51.08
2022-10-09T14:44:40.073Z,51.51
2022-10-09T14:47:06.538Z,51.42
2022-10-09T14:49:32.923Z,51.45
2022-10-09T14:51:59.327Z,52.30
2022-10-09T14:54:25.732Z,52.07
2022-10-09T14:56:52.214Z,53.24
2022-10-09T14:59:20.077Z,53.28
2022-10-09T15:01:46.543Z,53.25
2022-10-09T15:04:13.000Z,53.09
2022-10-09T15:06:39.436Z,53.15
2022-10-09T15:09:06.194Z,52.57
2022-10-09T15:11:34.131Z,52.86
2022-10-09T15:14:00.580Z,52.65
2022-10-09T15:16:42.792Z,53.00
2022-10-09T15:19:09.325Z,52.68
2022-10-09T15:21:36.168Z,52.23
2022-10-09T15:24:04.377Z,52.54
2022-10-09T15:26:32.391Z,52.50
2022-10-09T15:29:01.156Z,52.53
2022-10-09T15:31:30.811Z,52.67
2022-10-09T15:33:58.300Z,52.67
2022-10-09T15:36:25.400Z,53.08
2022-10-09T15:38:52.006Z,54.16
2022-10-09T15:41:23.000Z,52.68
2022-10-09T15:43:50.254Z,53.54
2022-10-09T15:46:16.705Z,54.60
2022-10-09T15:48:44.636Z,53.50
2022-10-09T15:51:11.448Z,52.29
2022-10-09T15:53:38.024Z,54.41
2022-10-09T15:56:05.496Z,53.33
2022-10-09T15:58:31.992Z,54.56
2022-10-09T16:01:03.835Z,55.58
2022-10-09T16:03:32.531Z,54.38
2022-10-09T16:06:04.058Z,54.31
2022-10-09T16:08:30.916Z,54.56
2022-10-09T16:10:57.787Z,53.55
2022-10-09T16:13:26.020Z,54.60
2022-10-09T16:15:52.732Z,54.28
2022-10-09T16:18:21.508Z,55.63
2022-10-09T16:20:48.708Z,54.37
2022-10-09T16:23:17.615Z,55.15
2022-10-09T16:25:44.078Z,55.80
2022-10-09T16:28:12.610Z,56.28
2022-10-09T16:30:40.815Z,56.19
2022-10-09T16:33:12.254Z,56.31
2022-10-09T16:35:39.239Z,56.44
2022-10-09T16:38:05.791Z,57.63
2022-10-09T16:40:57.500Z,57.89
2022-10-09T16:43:20.072Z,58.50
2022-10-09T16:45:46.606Z,58.83
2022-10-09T16:48:12.998Z,57.94
2022-10-09T16:50:40.676Z,58.28
2022-10-09T16:53:07.190Z,58.34
2022-10-09T16:55:35.016Z,59.06
2022-10-09T16:58:01.414Z,57.87
2022-10-09T17:00:28.019Z,58.25
2022-10-09T17:02:54.466Z,59.49
2022-10-09T17:05:20.886Z,59.78
2022-10-09T17:07:47.483Z,59.14
2022-10-09T17:10:14.169Z,59.20
2022-10-09T17:12:41.937Z,58.66
2022-10-09T17:15:08.639Z,60.44
2022-10-09T17:17:35.077Z,60.55
2022-10-09T17:20:01.571Z,60.13
2022-10-09T17:22:27.992Z,61.01
2022-10-09T17:24:54.478Z,61.31
2022-10-09T17:27:21.049Z,61.83
2022-10-09T17:29:48.978Z,62.45
2022-10-09T17:32:15.527Z,61.45
2022-10-09T17:34:41.964Z,61.98
2022-10-09T17:37:08.446Z,62.45
2022-10-09T17:39:34.885Z,61.68
2022-10-09T17:42:01.384Z,62.09
2022-10-09T17:44:27.770Z,63.18
2022-10-09T17:46:55.520Z,63.38
2022-10-09T17:49:21.936Z,63.61
2022-10-09T17:51:48.389Z,65.47
2022-10-09T17:54:16.333Z,66.19
2022-10-09T17:56:42.833Z,64.97
2022-10-09T17:59:09.502Z,64.57
2022-10-09T18:01:36.927Z,65.17
2022-10-09T18:04:04.888Z,64.89
2022-10-09T18:06:32.716Z,65.85
2022-10-09T18:08:59.268Z,65.67
2022-10-09T18:11:27.483Z,65.90
2022-10-09T18:13:54.297Z,65.42
2022-10-09T18:16:22.936Z,65.50
2022-10-09T18:18:49.464Z,65.31
2022-10-09T18:21:17.897Z,65.24
2022-10-09T18:23:45.527Z,66.52
2022-10-09T18:26:15.101Z,66.03
2022-10-09T18:28:44.735Z,66.96
2022-10-09T18:31:16.088Z,66.63
2022-10-09T18:33:42.592Z,66.35
2022-10-09T18:36:10.976Z,65.75
2022-10-09T18:38:39.528Z,65.89
2022-10-09T18:41:08.007Z,65.34
2022-10-09T18:43:34.900Z,66.40
2022-10-09T18:46:01.416Z,66.46
2022-10-09T18:48:31.154Z,66.52
2022-10-09T18:50:58.477Z,67.02
2022-10-09T18:53:25.116Z,67.02
2022-10-09T18:55:53.097Z,66.68
2022-10-09T18:58:19.572Z,66.94
2022-10-09T19:00:46.065Z,66.46
2022-10-09T19:03:12.574Z,65.33
2022-10-09T19:05:39.176Z,65.37
2022-10-09T19:08:05.643Z,65.13
2022-10-09T19:10:32.208Z,65.89
2022-10-09T19:13:00.014Z,65.02
2022-10-09T19:15:26.447Z,63.26
2022-10-09T19:17:53.049Z,63.51
2022-10-09T19:20:19.609Z,65.08
2022-10-09T19:22:46.068Z,64.92
2022-10-09T19:25:12.512Z,64.69
2022-10-09T19:27:39.087Z,64.46
2022-10-09T19:30:08.596Z,63.74
2022-10-09T19:32:34.979Z,64.24
2022-10-09T19:35:01.456Z,63.50
2022-10-09T19:37:29.808Z,62.95
2022-10-09T19:39:56.753Z,62.85
2022-10-09T19:42:23.177Z,62.30
2022-10-09T19:44:49.589Z,63.21
2022-10-09T19:47:17.343Z,62.09
2022-10-09T19:49:43.994Z,62.30
2022-10-09T19:52:10.450Z,63.54
2022-10-09T19:54:36.862Z,63.25
2022-10-09T19:57:03.518Z,63.32
2022-10-09T19:59:30.003Z,62.87
2022-10-09T20:01:57.692Z,62.33
2022-10-09T20:04:25.701Z,62.27
2022-10-09T20:06:52.138Z,61.45
2022-10-09T20:09:18.637Z,62.61
2022-10-09T20:11:45.040Z,62.18
2022-10-09T20:14:11.496Z,61.89
2022-10-09T20:16:38.643Z,62.63
2022-10-09T20:19:05.124Z,62.41
2022-10-09T20:21:33.962Z,61.53
2022-10-09T20:24:00.739Z,62.57
2022-10-09T20:26:27.703Z,62.72
2022-10-09T20:28:54.127Z,63.11
2022-10-09T20:31:23.222Z,61.12
2022-10-09T20:33:50.584Z,60.64
2022-10-09T20:36:19.885Z,61.57
2022-10-09T20:38:48.139Z,60.34
2022-10-09T20:41:15.192Z,61.16
2022-10-09T20:43:41.690Z,61.64
2022-10-09T20:46:08.800Z,62.34
2022-10-09T20:48:35.576Z,62.12
2022-10-09T20:51:02.372Z,62.96
2022-10-09T20:53:28.929Z,63.19
2022-10-09T20:56:00.978Z,62.05
2022-10-09T20:58:27.868Z,61.79
2022-10-09T21:00:54.386Z,62.23
2022-10-09T21:03:20.878Z,63.39
2022-10-09T21:05:47.368Z,62.61
2022-10-09T21:08:13.825Z,62.39
2022-10-09T21:10:44.024Z,62.24
2022-10-09T21:13:12.300Z,62.66
2022-10-09T21:15:43.642Z,61.65
2022-10-09T21:18:11.227Z,61.75
2022-10-09T21:20:38.131Z,62.01
2022-10-09T21:23:04.911Z,62.49
2022-10-09T21:25:31.399Z,62.69
2022-10-09T21:27:57.912Z,62.90
2022-10-09T21:30:26.352Z,62.63
2022-10-09T21:32:52.906Z,64.02
2022-10-09T21:35:19.752Z,63.63
2022-10-09T21:37:46.415Z,63.32
2022-10-09T21:40:12.864Z,63.36
2022-10-09T21:42:39.241Z,63.24
2022-10-09T21:45:06.592Z,63.60
2022-10-09T21:47:34.329Z,63.22
2022-10-09T21:50:00.758Z,63.97
2022-10-09T21:52:27.149Z,65.92
2022-10-09T21:54:53.823Z,64.41
2022-10-09T21:57:20.274Z,66.72
2022-10-09T21:59:47.314Z,65.90
2022-10-09T22:02:13.808Z,64.43
2022-10-09T22:04:41.549Z,66.95
2022-10-09T22:07:07.997Z,67.13
2022-10-09T22:09:34.417Z,66.71
2022-10-09T22:12:00.838Z,66.93
2022-10-09T22:14:27.323Z,66.33
2022-10-09T22:16:53.740Z,65.58
2022-10-09T22:19:20.161Z,65.73
2022-10-09T22:21:48.874Z,64.86
2022-10-09T22:24:15.343Z,66.14
2022-10-09T22:26:41.743Z,66.37
2022-10-09T22:29:08.166Z,65.28
2022-10-09T22:31:34.586Z,65.81
2022-10-09T22:34:01.959Z,66.13
2022-10-09T22:36:31.238Z,65.94
2022-10-09T22:39:01.490Z,65.33
2022-10-09T22:41:29.958Z,65.57
2022-10-09T22:43:59.040Z,65.11
2022-10-09T22:46:28.155Z,66.02
2022-10-09T22:48:55.003Z,66.36
2022-10-09T22:51:23.428Z,66.65
2022-10-09T22:53:50.045Z,66.52
2022-10-09T22:56:19.786Z,66.04
2022-10-09T22:58:47.520Z,66.74
2022-10-09T23:01:17.161Z,66.81
2022-10-09T23:03:44.193Z,65.14
2022-10-09T23:06:12.353Z,64.96
2022-10-09T23:08:40.713Z,65.09
2022-10-09T23:11:07.646Z,65.48
2022-10-09T23:13:36.330Z,64.61
2022-10-09T23:16:05.324Z,65.54
2022-10-09T23:18:32.708Z,64.53
2022-10-09T23:21:02.327Z,64.43
2022-10-09T23:23:28.893Z,64.48
2022-10-09T23:25:55.451Z,64.91
2022-10-09T23:28:21.896Z,65.65
2022-10-09T23:30:49.702Z,65.92
2022-10-09T23:33:16.144Z,66.42
2022-10-09T23:35:42.765Z,65.93
2022-10-09T23:38:09.430Z,66.48
2022-10-09T23:40:35.842Z,66.62
2022-10-09T23:43:02.285Z,66.68
2022-10-09T23:45:28.845Z,66.66
2022-10-09T23:47:56.624Z,66.29
2022-10-09T23:50:23.081Z,66.15
2022-10-09T23:52:49.679Z,66.05
2022-10-09T23:55:16.355Z,66.61
2022-10-09T23:57:42.731Z,66.40
